Time;durP1;ratioP1;P1;durP2;ratioP2;P2;SDS_P1;SDS_P2;PMS_P1;PMS_P2;Temp;Humidity;BMP_temperature;BMP_pressure;BME280_temperature;BME280_humidity;BME280_pressure;Samples;Min_cycle;Max_cycle;Signal;HPM_P1;HPM_P2
2021/07/13 00:01:11;;;;;;;3.40;2.20;;;;;;;16.60;nan;95946.72;3567866;40;20992;-73
2021/07/13 00:03:39;;;;;;;5.77;2.27;;;;;;;16.62;nan;95939.47;3569776;40;20826;-71
2021/07/13 00:06:09;;;;;;;4.57;2.80;;;;;;;16.69;nan;95935.22;3568277;40;20570;-72
2021/07/13 00:08:38;;;;;;;6.23;2.90;;;;;;;16.61;nan;95928.06;3568380;40;20906;-72
2021/07/13 00:11:06;;;;;;;3.10;1.87;;;;;;;16.49;nan;95916.13;3566106;40;20790;-71
2021/07/13 00:13:34;;;;;;;6.40;3.43;;;;;;;16.48;nan;95918.94;3570418;40;20730;-71
2021/07/13 00:16:02;;;;;;;13.00;3.20;;;;;;;16.48;nan;95924.22;3564671;40;21106;-72
2021/07/13 00:18:30;;;;;;;7.93;3.10;;;;;;;16.46;nan;95939.41;3568613;40;20465;-73
2021/07/13 00:20:58;;;;;;;7.30;2.50;;;;;;;16.38;nan;95948.94;3558337;40;20792;-73
2021/07/13 00:23:28;;;;;;;9.57;3.17;;;;;;;16.53;nan;95958.94;3559850;40;20715;-73
2021/07/13 00:25:56;;;;;;;7.07;2.73;;;;;;;16.40;nan;95962.81;3570660;40;20559;-74
2021/07/13 00:28:25;;;;;;;10.70;3.00;;;;;;;16.46;nan;95953.44;3566802;40;20592;-74
2021/07/13 00:30:53;;;;;;;6.53;2.90;;;;;;;16.26;nan;95938.81;3566825;40;20567;-73
2021/07/13 00:33:21;;;;;;;7.57;3.03;;;;;;;16.47;nan;95923.41;3570060;40;20929;-73
2021/07/13 00:35:49;;;;;;;6.63;3.57;;;;;;;16.68;nan;95925.63;3570730;40;20457;-74
2021/07/13 00:38:17;;;;;;;7.27;3.10;;;;;;;16.63;nan;95906.78;3570353;40;20821;-73
2021/07/13 00:40:46;;;;;;;6.57;3.20;;;;;;;16.70;nan;95912.25;3568845;40;20476;-72
2021/07/13 00:43:14;;;;;;;6.03;2.67;;;;;;;16.49;nan;95917.97;3570662;40;20831;-72
2021/07/13 00:45:42;;;;;;;5.10;2.53;;;;;;;16.58;nan;95932.84;3565667;40;20554;-73
2021/07/13 00:48:10;;;;;;;4.33;1.97;;;;;;;16.59;nan;95931.88;3571201;40;21063;-73
2021/07/13 00:50:39;;;;;;;2.50;1.90;;;;;;;16.65;nan;95915.38;3568479;40;20458;-73
2021/07/13 00:53:07;;;;;;;7.13;2.40;;;;;;;16.70;nan;95907.81;3571372;40;20823;-73
2021/07/13 00:55:35;;;;;;;6.03;2.17;;;;;;;16.36;nan;95913.09;3567119;40;20672;-73
2021/07/13 00:58:05;;;;;;;3.57;1.43;;;;;;;16.18;nan;95900.78;3569455;39;20551;-73
2021/07/13 01:00:34;;;;;;;3.43;1.33;;;;;;;16.11;nan;95909.50;3561708;40;20923;-73
2021/07/13 01:03:04;;;;;;;3.30;1.43;;;;;;;16.21;nan;95902.31;3569184;40;21098;-73
2021/07/13 01:05:37;;;;;;;2.90;1.57;;;;;;;16.32;nan;95899.38;3569466;40;20867;-74
2021/07/13 01:08:17;;;;;;;5.90;1.40;;;;;;;16.44;nan;95912.31;3566604;40;20461;-73
2021/07/13 01:10:52;;;;;;;5.73;1.77;;;;;;;16.58;nan;95909.06;3565968;40;20566;-73
2021/07/13 01:13:31;;;;;;;7.57;1.73;;;;;;;16.51;nan;95897.50;3570660;40;20945;-73
2021/07/13 01:16:04;;;;;;;2.70;1.80;;;;;;;16.50;nan;95903.75;3571021;40;20460;-71
2021/07/13 01:18:37;;;;;;;3.70;2.20;;;;;;;16.48;nan;95893.31;3565521;40;20455;-72
2021/07/13 01:21:30;;;;;;;6.40;2.20;;;;;;;16.64;nan;95913.75;3558545;40;21169;-73
2021/07/13 01:24:25;;;;;;;5.83;2.30;;;;;;;16.51;nan;95916.00;3565525;40;20905;-72
2021/07/13 01:27:05;;;;;;;5.43;2.00;;;;;;;16.48;nan;95913.66;3571206;40;20474;-72
2021/07/13 01:29:37;;;;;;;5.53;2.33;;;;;;;16.77;nan;95916.72;3565583;40;20899;-72
2021/07/13 01:32:06;;;;;;;7.03;2.63;;;;;;;16.78;nan;95917.56;3566614;40;20543;-73
2021/07/13 01:34:40;;;;;;;5.70;2.30;;;;;;;16.75;nan;95920.53;3570336;39;20449;-73
2021/07/13 01:37:10;;;;;;;3.47;2.20;;;;;;;16.70;nan;95922.81;3570968;40;20440;-73
2021/07/13 01:39:40;;;;;;;5.73;2.77;;;;;;;16.67;nan;95933.72;3569866;40;20773;-73
2021/07/13 01:42:11;;;;;;;5.57;2.43;;;;;;;16.67;nan;95929.25;3569847;40;20781;-72
2021/07/13 01:44:41;;;;;;;4.03;2.07;;;;;;;16.49;nan;95931.19;3560626;40;21186;-75
2021/07/13 01:47:11;;;;;;;5.97;3.00;;;;;;;16.48;nan;95937.44;3569995;40;20756;-73
2021/07/13 01:49:42;;;;;;;6.03;3.03;;;;;;;16.40;nan;95938.22;3577478;40;20507;-74
2021/07/13 01:52:12;;;;;;;6.13;2.83;;;;;;;16.34;nan;95950.25;3560966;40;20777;-73
2021/07/13 01:54:40;;;;;;;5.70;2.23;;;;;;;16.13;nan;95963.84;3558475;40;20827;-74
2021/07/13 01:57:10;;;;;;;6.03;2.70;;;;;;;16.04;nan;95971.88;3567210;40;20643;-72
2021/07/13 01:59:42;;;;;;;5.43;2.90;;;;;;;16.11;nan;95970.25;3571537;40;20483;-72
2021/07/13 02:02:11;;;;;;;4.50;2.83;;;;;;;16.12;nan;95969.28;3560915;40;20484;-72
2021/07/13 02:04:41;;;;;;;6.60;3.70;;;;;;;16.12;nan;95982.47;3559859;40;20542;-71
2021/07/13 02:07:12;;;;;;;6.67;3.43;;;;;;;16.13;nan;95989.41;3570135;40;20445;-71
2021/07/13 02:09:42;;;;;;;6.40;3.63;;;;;;;16.16;nan;95986.47;3572008;39;20575;-73
2021/07/13 02:12:11;;;;;;;9.53;3.37;;;;;;;16.23;nan;95973.44;3569824;40;20791;-73
2021/07/13 02:14:40;;;;;;;8.07;3.30;;;;;;;16.26;nan;95967.88;3571728;40;20453;-73
2021/07/13 02:17:08;;;;;;;11.03;3.83;;;;;;;16.23;nan;95955.81;3570425;40;20715;-72
2021/07/13 02:19:36;;;;;;;9.43;3.97;;;;;;;16.20;nan;95956.94;3569949;40;20599;-71
2021/07/13 02:22:06;;;;;;;2.10;1.90;;;;;;;16.17;nan;95954.63;3568840;40;20555;-73
2021/07/13 02:24:35;;;;;;;3.57;2.13;;;;;;;16.19;nan;95959.72;3571649;40;20838;-73
2021/07/13 02:27:07;;;;;;;5.27;2.30;;;;;;;16.15;nan;95961.03;3571316;40;20454;-72
2021/07/13 02:29:38;;;;;;;5.63;2.10;;;;;;;16.11;nan;95963.16;3568723;40;20462;-73
2021/07/13 02:32:12;;;;;;;6.30;2.07;;;;;;;16.08;nan;95963.47;3568509;40;20838;-73
2021/07/13 02:34:43;;;;;;;3.87;1.90;;;;;;;16.18;nan;95958.09;3569322;40;20458;-72
2021/07/13 02:37:13;;;;;;;4.10;2.17;;;;;;;16.26;nan;95960.78;3567408;40;20757;-72
2021/07/13 02:39:43;;;;;;;7.33;2.23;;;;;;;16.21;nan;95961.25;3568207;40;20936;-74
2021/07/13 02:42:12;;;;;;;4.90;2.37;;;;;;;16.19;nan;95960.56;3568270;40;20465;-73
2021/07/13 02:44:40;;;;;;;4.80;2.23;;;;;;;16.23;nan;95949.69;3568243;40;20558;-74
2021/07/13 02:47:12;;;;;;;4.93;2.10;;;;;;;16.26;nan;95947.56;3566396;40;20874;-71
2021/07/13 02:49:46;;;;;;;7.60;2.83;;;;;;;16.25;nan;95939.78;3559473;40;20837;-73
2021/07/13 02:52:18;;;;;;;5.10;2.37;;;;;;;16.12;nan;95933.13;3568933;40;20482;-73
2021/07/13 02:54:48;;;;;;;6.80;2.10;;;;;;;16.17;nan;95933.50;3567437;40;20481;-74
2021/07/13 02:57:17;;;;;;;4.73;2.00;;;;;;;16.21;nan;95918.97;3568856;40;20838;-73
2021/07/13 02:59:47;;;;;;;4.23;1.80;;;;;;;16.39;nan;95921.53;3567126;40;20717;-73
2021/07/13 03:02:17;;;;;;;9.13;2.00;;;;;;;16.27;nan;95920.19;3569906;40;20900;-72
2021/07/13 03:04:46;;;;;;;3.67;1.83;;;;;;;16.10;nan;95910.50;3570164;39;20455;-73
2021/07/13 03:07:15;;;;;;;3.60;2.17;;;;;;;16.20;nan;95905.94;3569885;40;20441;-73
2021/07/13 03:09:44;;;;;;;4.87;2.10;;;;;;;16.26;nan;95886.81;3568686;40;20931;-73
2021/07/13 03:12:13;;;;;;;9.43;2.27;;;;;;;16.44;nan;95881.44;3568790;40;20446;-72
2021/07/13 03:14:43;;;;;;;8.77;2.40;;;;;;;16.39;nan;95881.09;3567403;40;20480;-73
2021/07/13 03:17:13;;;;;;;10.63;2.27;;;;;;;16.50;nan;95864.94;3569867;40;20530;-73
2021/07/13 03:19:43;;;;;;;7.57;1.83;;;;;;;16.46;nan;95852.22;3559484;40;21201;-72
2021/07/13 03:22:19;;;;;;;7.20;1.70;;;;;;;16.31;nan;95839.63;3569525;39;20464;-73
2021/07/13 03:24:48;;;;;;;6.60;1.87;;;;;;;16.35;nan;95826.91;3568993;40;20837;-73
2021/07/13 03:27:19;;;;;;;3.50;1.17;;;;;;;16.48;nan;95823.81;3559943;40;21175;-73
2021/07/13 03:29:49;;;;;;;3.43;1.63;;;;;;;16.52;nan;95817.22;3571013;40;20560;-72
2021/07/13 03:32:18;;;;;;;4.37;2.47;;;;;;;16.57;nan;95809.63;3569091;40;20552;-73
2021/07/13 03:34:50;;;;;;;6.83;1.73;;;;;;;16.57;nan;95799.88;3568414;40;20845;-72
2021/07/13 03:37:20;;;;;;;2.20;1.83;;;;;;;16.51;nan;95802.34;3570807;40;20868;-72
2021/07/13 03:39:50;;;;;;;3.67;1.57;;;;;;;16.40;nan;95806.94;3573807;40;20462;-72
2021/07/13 03:42:18;;;;;;;4.70;1.93;;;;;;;16.30;nan;95803.59;3574681;40;20840;-73
2021/07/13 03:44:46;;;;;;;2.93;2.10;;;;;;;16.43;nan;95794.41;3570176;40;20484;-72
2021/07/13 03:47:16;;;;;;;4.40;1.73;;;;;;;16.51;nan;95786.50;3567766;40;20658;-73
2021/07/13 03:49:44;;;;;;;4.50;2.40;;;;;;;16.51;nan;95782.03;3565049;40;21021;-74
2021/07/13 03:52:17;;;;;;;4.40;1.90;;;;;;;16.43;nan;95768.81;3568821;40;20440;-72
2021/07/13 03:54:47;;;;;;;3.07;2.50;;;;;;;16.40;nan;95783.16;3571176;40;20834;-72
2021/07/13 03:57:15;;;;;;;9.77;2.70;;;;;;;16.08;nan;95791.00;3572300;40;20485;-74
2021/07/13 03:59:43;;;;;;;3.57;2.37;;;;;;;16.01;nan;95788.13;3569143;40;20719;-73
2021/07/13 04:02:12;;;;;;;8.67;2.77;;;;;;;16.37;nan;95791.41;3568088;40;20458;-73
2021/07/13 04:04:40;;;;;;;5.73;2.70;;;;;;;16.06;nan;95787.69;3567714;40;20734;-73
2021/07/13 04:07:08;;;;;;;7.03;3.00;;;;;;;16.32;nan;95780.50;3571673;40;20453;-72
2021/07/13 04:09:37;;;;;;;7.03;2.70;;;;;;;16.45;nan;95771.28;3569876;40;20514;-73
2021/07/13 04:12:06;;;;;;;6.67;2.50;;;;;;;16.52;nan;95774.91;3567983;40;20810;-72
2021/07/13 04:14:34;;;;;;;4.33;2.13;;;;;;;16.61;nan;95776.59;3562529;40;20859;-73
2021/07/13 04:17:03;;;;;;;5.70;2.40;;;;;;;16.58;nan;95790.13;3574045;40;20912;-75
2021/07/13 04:19:31;;;;;;;13.90;3.70;;;;;;;16.50;nan;95788.28;3572165;40;20474;-73
2021/07/13 04:21:59;;;;;;;3.90;2.57;;;;;;;16.56;nan;95789.47;3571930;40;20838;-74
2021/07/13 04:24:27;;;;;;;7.07;3.33;;;;;;;16.25;nan;95791.84;3567682;40;20844;-73
2021/07/13 04:26:56;;;;;;;4.50;2.67;;;;;;;16.50;nan;95790.94;3567910;40;20457;-77
2021/07/13 04:29:24;;;;;;;6.77;2.63;;;;;;;16.72;nan;95792.16;3559201;40;20933;-73
2021/07/13 04:31:52;;;;;;;5.10;2.53;;;;;;;16.81;nan;95787.69;3561689;40;20725;-74
2021/07/13 04:34:21;;;;;;;3.37;2.47;;;;;;;16.85;nan;95786.41;3570797;40;20659;-73
2021/07/13 04:36:49;;;;;;;4.50;2.63;;;;;;;17.03;nan;95777.47;3570635;40;20468;-74
2021/07/13 04:39:17;;;;;;;5.03;3.10;;;;;;;16.95;nan;95775.66;3566630;40;20688;-74
2021/07/13 04:41:44;;;;;;;4.83;2.57;;;;;;;17.09;nan;95787.41;3568809;40;20925;-74
2021/07/13 04:44:15;;;;;;;7.90;2.67;;;;;;;17.09;nan;95785.59;3569353;40;20752;-75
2021/07/13 04:46:42;;;;;;;6.63;2.60;;;;;;;16.88;nan;95798.50;3572737;40;20841;-74
2021/07/13 04:49:11;;;;;;;6.47;3.20;;;;;;;16.87;nan;95787.06;3567950;40;20845;-73
2021/07/13 04:51:40;;;;;;;9.03;3.63;;;;;;;16.97;nan;95794.84;3568575;40;20538;-74
2021/07/13 04:54:08;;;;;;;5.20;3.43;;;;;;;17.02;nan;95795.19;3567949;40;20470;-75
2021/07/13 04:56:36;;;;;;;8.53;3.60;;;;;;;16.98;nan;95804.44;3569922;40;20456;-74
2021/07/13 04:59:04;;;;;;;3.90;3.00;;;;;;;16.98;nan;95793.84;3570166;40;21148;-72
2021/07/13 05:01:34;;;;;;;4.83;3.30;;;;;;;16.99;nan;95803.44;3568383;40;20528;-72
2021/07/13 05:04:02;;;;;;;7.13;3.63;;;;;;;17.08;nan;95813.03;3568210;40;20571;-73
2021/07/13 05:06:30;;;;;;;12.40;4.67;;;;;;;17.08;nan;95813.03;3570511;40;20818;-73
2021/07/13 05:08:58;;;;;;;9.67;4.90;;;;;;;17.03;nan;95815.34;3571354;40;20898;-74
2021/07/13 05:11:26;;;;;;;6.20;4.20;;;;;;;16.98;nan;95812.38;3570721;40;20773;-73
2021/07/13 05:13:54;;;;;;;8.10;4.13;;;;;;;17.06;nan;95804.44;3567930;40;20719;-73
2021/07/13 05:16:23;;;;;;;6.37;3.80;;;;;;;16.99;nan;95800.78;3565276;40;20726;-74
2021/07/13 05:18:52;;;;;;;10.90;6.90;;;;;;;16.83;nan;95790.22;3568064;40;20746;-73
2021/07/13 05:21:20;;;;;;;12.83;5.40;;;;;;;16.85;nan;95814.66;3571310;40;20772;-73
2021/07/13 05:23:48;;;;;;;7.47;3.63;;;;;;;16.86;nan;95818.97;3567948;40;20765;-73
2021/07/13 05:26:16;;;;;;;6.57;3.47;;;;;;;16.81;nan;95795.63;3576792;40;20457;-73
2021/07/13 05:28:44;;;;;;;5.83;3.93;;;;;;;16.81;nan;95814.13;3567622;40;20688;-72
2021/07/13 05:31:12;;;;;;;10.63;4.53;;;;;;;16.58;nan;95793.63;3566783;40;20457;-73
2021/07/13 05:33:40;;;;;;;9.10;4.30;;;;;;;16.76;nan;95804.06;3561940;40;20463;-72
2021/07/13 05:36:09;;;;;;;9.37;3.90;;;;;;;16.86;nan;95795.19;3567910;40;20520;-73
2021/07/13 05:38:38;;;;;;;10.00;4.30;;;;;;;16.98;nan;95801.78;3565848;40;20846;-73
2021/07/13 05:41:05;;;;;;;10.27;4.70;;;;;;;17.09;nan;95780.31;3567858;40;21173;-74
2021/07/13 05:43:34;;;;;;;7.97;4.00;;;;;;;17.29;nan;95787.88;3567831;40;20479;-73
2021/07/13 05:46:02;;;;;;;8.13;3.90;;;;;;;17.36;nan;95780.94;3573097;40;20480;-75
2021/07/13 05:48:29;;;;;;;6.50;3.70;;;;;;;17.35;nan;95780.13;3569494;40;20943;-72
2021/07/13 05:50:57;;;;;;;5.93;3.20;;;;;;;17.37;nan;95787.91;3569634;40;20458;-73
2021/07/13 05:53:26;;;;;;;8.80;3.60;;;;;;;17.38;nan;95790.34;3571724;40;20973;-74
2021/07/13 05:55:54;;;;;;;5.10;3.00;;;;;;;17.13;nan;95794.84;3568002;40;20481;-72
2021/07/13 05:58:22;;;;;;;4.60;3.33;;;;;;;17.07;nan;95805.25;3570236;40;20458;-71
2021/07/13 06:00:52;;;;;;;7.13;4.43;;;;;;;17.06;nan;95811.56;3570635;40;20462;-73
2021/07/13 06:03:20;;;;;;;8.63;4.30;;;;;;;16.93;nan;95817.31;3568001;40;20477;-72
2021/07/13 06:05:48;;;;;;;20.87;12.67;;;;;;;16.91;nan;95811.38;3571091;40;20464;-73
2021/07/13 06:08:16;;;;;;;14.70;7.50;;;;;;;16.89;nan;95810.69;3572489;40;20526;-72
2021/07/13 06:10:45;;;;;;;6.67;3.83;;;;;;;16.90;nan;95802.59;3571350;40;20478;-73
2021/07/13 06:13:13;;;;;;;6.40;4.10;;;;;;;16.97;nan;95813.34;3560392;40;20880;-72
2021/07/13 06:15:41;;;;;;;7.60;4.60;;;;;;;16.90;nan;95821.13;3567573;40;20766;-73
2021/07/13 06:18:09;;;;;;;8.63;4.40;;;;;;;16.80;nan;95821.25;3568507;40;20775;-75
2021/07/13 06:20:37;;;;;;;4.97;3.67;;;;;;;16.87;nan;95833.84;3570915;40;20557;-72
2021/07/13 06:23:06;;;;;;;5.67;4.00;;;;;;;16.78;nan;95822.41;3559232;40;20474;-75
2021/07/13 06:25:34;;;;;;;13.47;4.57;;;;;;;16.93;nan;95814.66;3566060;40;20971;-71
2021/07/13 06:28:03;;;;;;;5.70;3.93;;;;;;;17.14;nan;95814.19;3557597;40;20579;-72
2021/07/13 06:30:31;;;;;;;8.23;4.10;;;;;;;17.02;nan;95826.09;3571524;40;20451;-72
2021/07/13 06:32:59;;;;;;;5.73;4.60;;;;;;;16.98;nan;95829.06;3571819;40;20837;-74
2021/07/13 06:35:27;;;;;;;5.77;4.37;;;;;;;16.89;nan;95824.75;3570195;40;20862;-72
2021/07/13 06:37:57;;;;;;;6.07;4.30;;;;;;;16.77;nan;95831.31;3567845;40;20687;-73
2021/07/13 06:40:26;;;;;;;5.43;4.70;;;;;;;16.74;nan;95831.63;3567445;40;20934;-73
2021/07/13 06:42:54;;;;;;;6.90;5.10;;;;;;;16.61;nan;95824.19;3571205;40;20686;-74
2021/07/13 06:45:23;;;;;;;11.87;5.80;;;;;;;16.57;nan;95831.59;3560477;40;20774;-74
2021/07/13 06:47:54;;;;;;;9.23;5.40;;;;;;;16.53;nan;95842.66;3573218;40;20833;-73
2021/07/13 06:50:23;;;;;;;12.20;5.57;;;;;;;16.59;nan;95842.00;3570573;40;20856;-72
2021/07/13 06:52:51;;;;;;;8.63;4.93;;;;;;;16.51;nan;95834.88;3570857;40;20439;-73
2021/07/13 06:55:20;;;;;;;10.70;5.50;;;;;;;16.49;nan;95828.94;3557075;40;20461;-72
2021/07/13 06:57:48;;;;;;;11.23;6.20;;;;;;;16.62;nan;95825.81;3571489;40;20714;-72
2021/07/13 07:00:17;;;;;;;8.30;5.63;;;;;;;16.49;nan;95828.13;3571859;40;20466;-73
2021/07/13 07:02:46;;;;;;;9.00;5.37;;;;;;;16.48;nan;95837.00;3566730;40;20571;-74
2021/07/13 07:05:15;;;;;;;34.23;18.87;;;;;;;16.51;nan;95849.91;3569487;40;20947;-73
2021/07/13 07:07:44;;;;;;;17.10;5.40;;;;;;;16.49;nan;95849.25;3568478;40;20620;-75
2021/07/13 07:10:14;;;;;;;15.00;9.30;;;;;;;16.62;nan;95854.88;3573844;40;20443;-72
2021/07/13 07:12:42;;;;;;;9.23;5.90;;;;;;;16.57;nan;95844.00;3569396;40;21153;-74
2021/07/13 07:15:11;;;;;;;11.67;8.63;;;;;;;16.72;nan;95831.81;3571406;40;20460;-74
2021/07/13 07:17:43;;;;;;;7.37;5.00;;;;;;;16.63;nan;95845.97;3572134;40;20542;-74
2021/07/13 07:20:14;;;;;;;9.50;4.90;;;;;;;16.53;nan;95853.22;3569650;40;20541;-72
2021/07/13 07:22:42;;;;;;;9.70;4.23;;;;;;;16.53;nan;95855.88;3567364;40;21106;-73
2021/07/13 07:25:11;;;;;;;7.07;4.67;;;;;;;16.58;nan;95850.91;3567540;40;20854;-72
2021/07/13 07:27:40;;;;;;;7.77;4.67;;;;;;;16.56;nan;95847.59;3568194;40;20466;-72
2021/07/13 07:30:10;;;;;;;8.03;4.80;;;;;;;16.67;nan;95847.31;3568420;40;20845;-74
2021/07/13 07:32:38;;;;;;;7.80;4.90;;;;;;;16.70;nan;95854.94;3563362;40;20875;-73
2021/07/13 07:35:08;;;;;;;14.57;5.77;;;;;;;16.84;nan;95860.59;3578613;40;20442;-73
2021/07/13 07:37:38;;;;;;;6.77;5.53;;;;;;;16.85;nan;95849.84;3571102;40;20672;-74
2021/07/13 07:40:08;;;;;;;17.53;5.77;;;;;;;16.87;nan;95841.75;3573639;40;20549;-74
2021/07/13 07:42:37;;;;;;;9.70;5.20;;;;;;;16.79;nan;95827.50;3572148;40;21157;-72
2021/07/13 07:45:07;;;;;;;5.90;5.30;;;;;;;16.72;nan;95834.44;3569072;40;21185;-72
2021/07/13 07:47:35;;;;;;;10.97;5.73;;;;;;;16.75;nan;95839.41;3569012;40;20897;-73
2021/07/13 07:50:05;;;;;;;5.60;4.20;;;;;;;16.78;nan;95852.31;3561887;40;21125;-72
2021/07/13 07:52:33;;;;;;;6.73;4.10;;;;;;;16.72;nan;95842.38;3570697;40;20826;-71
2021/07/13 07:55:05;;;;;;;7.00;4.53;;;;;;;16.78;nan;95849.66;3575160;40;20465;-73
2021/07/13 07:57:33;;;;;;;5.93;4.20;;;;;;;16.56;nan;95856.38;3572831;40;20499;-73
2021/07/13 08:00:01;;;;;;;3.80;2.90;;;;;;;16.44;nan;95854.19;3571534;40;20497;-73
2021/07/13 08:02:29;;;;;;;4.47;2.30;;;;;;;16.39;nan;95867.88;3573121;40;21037;-74
2021/07/13 08:04:57;;;;;;;3.40;2.20;;;;;;;16.35;nan;95867.38;3571662;40;20542;-72
2021/07/13 08:07:25;;;;;;;1.83;1.60;;;;;;;16.33;nan;95871.97;3568955;40;21156;-72
2021/07/13 08:09:53;;;;;;;1.90;1.30;;;;;;;16.15;nan;95863.28;3571726;40;20473;-73
2021/07/13 08:12:23;;;;;;;0.90;0.80;;;;;;;16.14;nan;95861.66;3574894;40;20458;-72
2021/07/13 08:14:51;;;;;;;1.57;1.10;;;;;;;16.04;nan;95866.22;3561353;40;20963;-74
2021/07/13 08:17:20;;;;;;;2.60;1.40;;;;;;;15.99;nan;95872.81;3563462;40;20550;-73
2021/07/13 08:19:48;;;;;;;1.40;1.10;;;;;;;16.01;nan;95860.28;3568642;40;20839;-72
2021/07/13 08:22:16;;;;;;;3.63;1.00;;;;;;;15.98;nan;95863.22;3572821;40;20469;-74
2021/07/13 08:24:44;;;;;;;3.13;0.80;;;;;;;15.99;nan;95859.63;3571081;40;20601;-74
2021/07/13 08:27:12;;;;;;;2.60;1.13;;;;;;;15.99;nan;95848.19;3560459;40;20473;-76
2021/07/13 08:29:42;;;;;;;3.17;1.10;;;;;;;16.03;nan;95849.53;3567936;40;20485;-73
2021/07/13 08:32:10;;;;;;;1.47;0.80;;;;;;;16.01;nan;95849.72;3572162;40;20454;-73
2021/07/13 08:34:38;;;;;;;0.97;0.60;;;;;;;15.75;nan;95836.53;3566614;40;20699;-73
2021/07/13 08:37:06;;;;;;;2.33;0.60;;;;;;;15.79;nan;95844.97;3566658;40;20542;-75
2021/07/13 08:39:34;;;;;;;1.03;0.50;;;;;;;15.94;nan;95851.31;3568217;40;20546;-74
2021/07/13 08:42:09;;;;;;;2.10;0.60;;;;;;;15.77;nan;95844.28;3568367;40;21207;-74
2021/07/13 08:44:37;;;;;;;3.90;2.30;;;;;;;15.65;nan;95854.25;3576302;40;20757;-73
2021/07/13 08:47:08;;;;;;;3.20;1.00;;;;;;;15.58;nan;95846.13;3577021;40;20442;-73
2021/07/13 08:49:36;;;;;;;3.40;0.60;;;;;;;15.45;nan;95845.72;3565953;40;20476;-72
2021/07/13 08:52:04;;;;;;;0.80;0.50;;;;;;;15.33;nan;95857.50;3567357;40;21007;-73
2021/07/13 08:54:35;;;;;;;1.10;0.57;;;;;;;15.38;nan;95868.41;3569312;40;20678;-72
2021/07/13 08:57:03;;;;;;;0.90;0.60;;;;;;;15.22;nan;95872.56;3568928;40;20450;-73
2021/07/13 08:59:31;;;;;;;2.80;0.50;;;;;;;15.19;nan;95874.66;3570893;40;20469;-72
2021/07/13 09:01:59;;;;;;;0.70;0.50;;;;;;;15.10;nan;95881.69;3574992;40;20856;-74
2021/07/13 09:04:36;;;;;;;0.70;0.40;;;;;;;15.01;nan;95888.69;3570766;40;20456;-72
2021/07/13 09:07:09;;;;;;;0.70;0.40;;;;;;;14.87;nan;95906.84;3559971;40;20453;-73
2021/07/13 09:09:38;;;;;;;1.13;0.50;;;;;;;14.81;nan;95908.25;3571964;40;20905;-72
2021/07/13 09:12:15;;;;;;;0.80;0.50;;;;;;;14.81;nan;95922.25;3569378;40;20671;-73
2021/07/13 09:14:48;;;;;;;1.20;0.80;;;;;;;14.75;nan;95919.38;3573831;40;20917;-72
2021/07/13 09:17:35;;;;;;;0.70;0.40;;;;;;;14.62;nan;95940.81;3558978;40;20793;-72
2021/07/13 09:20:11;;;;;;;1.30;0.50;;;;;;;14.36;nan;95954.59;3571294;40;20550;-72
2021/07/13 09:22:51;;;;;;;2.17;0.60;;;;;;;14.25;nan;95944.28;3559658;40;20549;-74
2021/07/13 09:25:31;;;;;;;0.80;0.50;;;;;;;14.19;nan;95960.63;3572536;40;20506;-73
2021/07/13 09:28:10;;;;;;;0.80;0.50;;;;;;;14.18;nan;95962.44;3563236;40;21142;-73
2021/07/13 09:30:39;;;;;;;1.00;0.50;;;;;;;14.06;nan;95955.69;3560123;40;21130;-72
2021/07/13 09:33:12;;;;;;;6.30;0.60;;;;;;;14.26;nan;95945.91;3570470;40;20441;-75
2021/07/13 09:36:07;;;;;;;0.70;0.40;;;;;;;14.24;nan;95942.59;3567180;40;20874;-73
2021/07/13 09:38:38;;;;;;;0.80;0.50;;;;;;;14.31;nan;95950.75;3568206;40;20453;-73
2021/07/13 09:41:12;;;;;;;3.90;0.50;;;;;;;14.36;nan;95956.44;3569269;40;20469;-73
2021/07/13 09:43:42;;;;;;;1.60;0.57;;;;;;;14.31;nan;95956.88;3572423;40;20841;-73
2021/07/13 09:46:31;;;;;;;0.70;0.50;;;;;;;14.16;nan;95964.38;3570851;40;20483;-75
2021/07/13 09:49:24;;;;;;;0.93;0.47;;;;;;;13.98;nan;95947.69;3570340;39;20443;-73
2021/07/13 09:51:58;;;;;;;0.90;0.50;;;;;;;13.99;nan;95970.38;3564576;40;20854;-72
2021/07/13 09:54:46;;;;;;;1.00;0.50;;;;;;;14.03;nan;95955.97;3572251;40;20471;-74
2021/07/13 09:57:16;;;;;;;0.83;0.50;;;;;;;14.10;nan;95953.59;3567655;40;20458;-72
2021/07/13 09:59:45;;;;;;;4.10;0.50;;;;;;;14.28;nan;95949.25;3559269;40;20484;-73
2021/07/13 10:02:15;;;;;;;1.00;0.60;;;;;;;14.31;nan;95938.44;3570420;40;20457;-73
2021/07/13 10:04:45;;;;;;;3.33;0.50;;;;;;;14.15;nan;95954.00;3570632;40;20694;-73
2021/07/13 10:07:16;;;;;;;1.27;0.50;;;;;;;14.11;nan;95958.72;3560751;40;20470;-73
2021/07/13 10:09:47;;;;;;;0.80;0.50;;;;;;;14.14;nan;95962.88;3568757;40;20777;-74
2021/07/13 10:12:16;;;;;;;0.70;0.50;;;;;;;14.14;nan;95962.88;3570146;40;20452;-71
2021/07/13 10:14:46;;;;;;;1.20;0.50;;;;;;;14.10;nan;95946.53;3567968;40;20876;-73
2021/07/13 10:17:15;;;;;;;0.80;0.50;;;;;;;14.19;nan;95940.41;3568095;40;20479;-73
2021/07/13 10:19:47;;;;;;;0.80;0.50;;;;;;;14.32;nan;95928.72;3559002;40;20472;-73
2021/07/13 10:22:20;;;;;;;0.80;0.50;;;;;;;14.52;nan;95913.66;3568291;40;20934;-74
2021/07/13 10:24:50;;;;;;;0.70;0.50;;;;;;;14.69;nan;95914.72;3568315;40;20568;-72
2021/07/13 10:27:26;;;;;;;0.73;0.50;;;;;;;14.98;nan;95906.63;3573549;40;20495;-73
2021/07/13 10:29:55;;;;;;;1.00;0.50;;;;;;;15.07;nan;95924.16;3569313;40;20926;-72
2021/07/13 10:32:38;;;;;;;0.80;0.50;;;;;;;15.16;nan;95938.28;3573822;40;20756;-73
2021/07/13 10:35:23;;;;;;;0.70;0.40;;;;;;;15.12;nan;95944.81;3569711;40;20784;-73
2021/07/13 10:37:54;;;;;;;0.80;0.50;;;;;;;15.08;nan;95936.38;3569362;40;20491;-74
2021/07/13 10:40:40;;;;;;;1.83;0.50;;;;;;;15.18;nan;95929.22;3568326;40;20461;-72
2021/07/13 10:43:17;;;;;;;1.50;0.57;;;;;;;15.19;nan;95940.59;3569798;40;20765;-72
2021/07/13 10:45:46;;;;;;;0.70;0.50;;;;;;;15.01;nan;95949.34;3574441;40;20853;-73
2021/07/13 10:48:16;;;;;;;10.57;6.00;;;;;;;14.94;nan;95960.63;3559813;40;20512;-73
2021/07/13 10:50:53;;;;;;;1.77;0.90;;;;;;;15.21;nan;95950.03;3561157;40;20925;-71
2021/07/13 10:53:35;;;;;;;1.33;0.50;;;;;;;15.34;nan;95972.56;3558271;40;20839;-73
2021/07/13 10:56:10;;;;;;;0.70;0.40;;;;;;;15.32;nan;95975.34;3570689;40;20699;-73
2021/07/13 10:58:54;;;;;;;1.00;0.50;;;;;;;15.27;nan;95993.44;3571522;40;20456;-74
2021/07/13 11:01:27;;;;;;;0.70;0.50;;;;;;;15.20;nan;95990.56;3569173;40;20723;-72
2021/07/13 11:04:20;;;;;;;0.70;0.50;;;;;;;15.27;nan;95988.16;3569402;40;20450;-73
2021/07/13 11:06:53;;;;;;;1.00;0.50;;;;;;;15.41;nan;95984.19;3566753;40;20918;-73
2021/07/13 11:09:47;;;;;;;0.77;0.50;;;;;;;15.45;nan;95980.25;3558835;40;20722;-75
2021/07/13 11:12:19;;;;;;;1.00;0.60;;;;;;;15.59;nan;95976.25;3567254;40;20438;-74
2021/07/13 11:14:48;;;;;;;0.80;0.50;;;;;;;15.52;nan;95980.47;3565981;40;20551;-74
2021/07/13 11:17:20;;;;;;;1.37;0.60;;;;;;;15.53;nan;95982.97;3565466;40;21061;-75
2021/07/13 11:19:49;;;;;;;1.10;0.70;;;;;;;15.62;nan;95978.59;3566022;40;20480;-72
2021/07/13 11:22:19;;;;;;;1.63;0.60;;;;;;;15.63;nan;95974.97;3568604;40;20430;-73
2021/07/13 11:24:48;;;;;;;3.10;0.60;;;;;;;15.71;nan;95987.41;3557200;40;20550;-76
2021/07/13 11:27:18;;;;;;;0.83;0.60;;;;;;;15.58;nan;95980.72;3571754;40;20480;-74
2021/07/13 11:29:52;;;;;;;0.90;0.60;;;;;;;15.50;nan;95993.81;3570033;40;20475;-76
2021/07/13 11:32:20;;;;;;;4.40;0.60;;;;;;;15.41;nan;95985.00;3569788;40;20878;-73
2021/07/13 11:34:49;;;;;;;2.70;0.60;;;;;;;15.59;nan;95987.63;3568659;40;21210;-73
2021/07/13 11:37:18;;;;;;;1.00;0.50;;;;;;;15.48;nan;96008.97;3567095;40;20450;-74
2021/07/13 11:39:48;;;;;;;11.63;6.63;;;;;;;15.44;nan;96012.88;3566664;39;20750;-74
2021/07/13 11:42:16;;;;;;;2.80;1.37;;;;;;;15.45;nan;96017.19;3570357;40;20912;-74
2021/07/13 11:44:45;;;;;;;1.97;0.80;;;;;;;15.53;nan;96019.91;3572084;40;20849;-73
2021/07/13 11:47:15;;;;;;;1.23;0.63;;;;;;;15.49;nan;96018.56;3570752;40;20920;-74
2021/07/13 11:49:43;;;;;;;0.80;0.60;;;;;;;15.50;nan;96027.28;3567305;40;20558;-71
2021/07/13 11:52:13;;;;;;;1.57;0.60;;;;;;;15.36;nan;96029.47;3571152;40;20449;-74
2021/07/13 11:54:42;;;;;;;1.20;0.80;;;;;;;15.44;nan;96034.00;3572134;40;20754;-74
2021/07/13 11:57:18;;;;;;;1.50;0.80;;;;;;;15.42;nan;96025.41;3570913;40;20474;-74
2021/07/13 11:59:46;;;;;;;1.97;0.73;;;;;;;15.63;nan;96018.03;3557677;40;20456;-73
2021/07/13 12:02:15;;;;;;;2.70;0.70;;;;;;;15.81;nan;96011.94;3563526;40;20851;-74
2021/07/13 12:04:46;;;;;;;3.03;0.70;;;;;;;15.92;nan;96010.88;3570302;40;20553;-72